VIV9020 MMMD-MMVR
Flight info
| Callsign | VIV9020 |
|---|---|
| Flight time | 1h 13m |
| Altitude | 34000 |
| Route | MMMD/10 N0448F360 ELSI1A ELSIP UJ9 CPE UJ24 NUDIK DCT OMPAN OMPA1A MMVR/01 |
| Aircraft | A320/M-VGDW/C |
Departure
| Time | 2026-05-05 01:58 |
|---|---|
| Airport | Manuel Crescencio Rejón International Airport (MMMD) |
Arrival
| Time | 2026-05-05 03:12 |
|---|---|
| Airport | General Heriberto Jara International Airport (MMVR) |
| Time | Latitude | Longitude | Altitude | Speed | Heading |
|---|---|---|---|---|---|
| 2026-05-05 01:44 | 20.93520 | -89.66190 | 44 ft | 0 kts | 232° |
| 2026-05-05 01:52 | 20.93521 | -89.66187 | 44 ft | 2 kts | 232° |
| 2026-05-05 01:52 | 20.93530 | -89.66175 | 44 ft | 2 kts | 232° |
| 2026-05-05 01:53 | 20.93536 | -89.66161 | 44 ft | 2 kts | 264° |
| 2026-05-05 01:53 | 20.93535 | -89.66145 | 44 ft | 2 kts | 289° |
| 2026-05-05 01:53 | 20.93528 | -89.66131 | 44 ft | 2 kts | 314° |
| 2026-05-05 01:53 | 20.93515 | -89.66122 | 44 ft | 2 kts | 340° |
| 2026-05-05 01:54 | 20.93504 | -89.66119 | 44 ft | 0 kts | 358° |
| 2026-05-05 01:54 | 20.93497 | -89.66119 | 44 ft | 0 kts | 2° |
| 2026-05-05 01:55 | 20.93499 | -89.66119 | 44 ft | 1 kts | 2° |
| 2026-05-05 01:56 | 20.93520 | -89.66116 | 44 ft | 4 kts | 24° |
| 2026-05-05 01:56 | 20.93546 | -89.66083 | 45 ft | 7 kts | 71° |
| 2026-05-05 01:56 | 20.93550 | -89.66012 | 44 ft | 11 kts | 82° |
| 2026-05-05 01:56 | 20.93628 | -89.65974 | 44 ft | 15 kts | 359° |
| 2026-05-05 01:57 | 20.93733 | -89.65955 | 45 ft | 14 kts | 57° |
| 2026-05-05 01:57 | 20.93724 | -89.65849 | 44 ft | 16 kts | 105° |
| 2026-05-05 01:57 | 20.93636 | -89.65511 | 44 ft | 79 kts | 105° |
| 2026-05-05 01:57 | 20.93433 | -89.64720 | 44 ft | 136 kts | 105° |
| 2026-05-05 01:58 | 20.93145 | -89.63594 | 153 ft | 170 kts | 103° |
| 2026-05-05 01:58 | 20.92822 | -89.62363 | 623 ft | 176 kts | 103° |
| 2026-05-05 01:58 | 20.92487 | -89.61105 | 1175 ft | 182 kts | 103° |
| 2026-05-05 01:58 | 20.92148 | -89.59824 | 1908 ft | 177 kts | 103° |
| 2026-05-05 01:59 | 20.91807 | -89.58542 | 2389 ft | 186 kts | 107° |
| 2026-05-05 01:59 | 20.91010 | -89.57362 | 2585 ft | 211 kts | 143° |
| 2026-05-05 01:59 | 20.89579 | -89.56860 | 2915 ft | 232 kts | 173° |
| 2026-05-05 01:59 | 20.87892 | -89.56785 | 3274 ft | 248 kts | 174° |
| 2026-05-05 02:00 | 20.86105 | -89.56667 | 3619 ft | 265 kts | 173° |
| 2026-05-05 02:00 | 20.84237 | -89.56527 | 4199 ft | 271 kts | 173° |
| 2026-05-05 02:00 | 20.82336 | -89.56380 | 4714 ft | 272 kts | 174° |
| 2026-05-05 02:00 | 20.80432 | -89.56235 | 4976 ft | 272 kts | 174° |
| 2026-05-05 02:01 | 20.78540 | -89.56090 | 5010 ft | 272 kts | 174° |
| 2026-05-05 02:01 | 20.76639 | -89.56020 | 5034 ft | 274 kts | 179° |
| 2026-05-05 02:01 | 20.74713 | -89.56061 | 5352 ft | 281 kts | 180° |
| 2026-05-05 02:01 | 20.72754 | -89.56114 | 5811 ft | 277 kts | 180° |
| 2026-05-05 02:02 | 20.70849 | -89.56352 | 5978 ft | 277 kts | 199° |
| 2026-05-05 02:02 | 20.69266 | -89.57508 | 6116 ft | 282 kts | 229° |
| 2026-05-05 02:02 | 20.68092 | -89.59188 | 6699 ft | 287 kts | 233° |
| 2026-05-05 02:02 | 20.66903 | -89.60904 | 7475 ft | 287 kts | 232° |
| 2026-05-05 02:03 | 20.65722 | -89.62579 | 8178 ft | 288 kts | 233° |
| 2026-05-05 02:03 | 20.64506 | -89.64287 | 8696 ft | 289 kts | 233° |
| 2026-05-05 02:03 | 20.63287 | -89.65997 | 8963 ft | 289 kts | 233° |
| 2026-05-05 02:03 | 20.62066 | -89.67705 | 8998 ft | 288 kts | 233° |
| 2026-05-05 02:04 | 20.60844 | -89.69411 | 9006 ft | 288 kts | 233° |
| 2026-05-05 02:04 | 20.59636 | -89.71097 | 9006 ft | 288 kts | 233° |
| 2026-05-05 02:04 | 20.58410 | -89.72808 | 9007 ft | 289 kts | 233° |
| 2026-05-05 02:04 | 20.57176 | -89.74526 | 9008 ft | 290 kts | 233° |
| 2026-05-05 02:05 | 20.55950 | -89.76234 | 9008 ft | 290 kts | 233° |
| 2026-05-05 02:05 | 20.54725 | -89.77939 | 9009 ft | 291 kts | 233° |
| 2026-05-05 02:05 | 20.53498 | -89.79642 | 9008 ft | 290 kts | 233° |
| 2026-05-05 02:05 | 20.52267 | -89.81354 | 9009 ft | 290 kts | 233° |
| 2026-05-05 02:06 | 20.51037 | -89.83067 | 9008 ft | 290 kts | 233° |
| 2026-05-05 02:06 | 20.49797 | -89.84789 | 9007 ft | 289 kts | 233° |
| 2026-05-05 02:06 | 20.48576 | -89.86484 | 9010 ft | 289 kts | 233° |
| 2026-05-05 02:06 | 20.47353 | -89.88183 | 9011 ft | 288 kts | 233° |
| 2026-05-05 02:07 | 20.46143 | -89.89863 | 9009 ft | 288 kts | 233° |
| 2026-05-05 02:07 | 20.44919 | -89.91563 | 9007 ft | 288 kts | 233° |
| 2026-05-05 02:07 | 20.43691 | -89.93268 | 9177 ft | 294 kts | 232° |
| 2026-05-05 02:07 | 20.42441 | -89.94998 | 9822 ft | 295 kts | 233° |
| 2026-05-05 02:08 | 20.41182 | -89.96735 | 10454 ft | 298 kts | 234° |
| 2026-05-05 02:08 | 20.39878 | -89.98542 | 10745 ft | 313 kts | 234° |
| 2026-05-05 02:08 | 20.38517 | -90.00430 | 11003 ft | 328 kts | 234° |
| 2026-05-05 02:08 | 20.37109 | -90.02387 | 11244 ft | 343 kts | 234° |
| 2026-05-05 02:09 | 20.35622 | -90.04449 | 11481 ft | 357 kts | 234° |
| 2026-05-05 02:09 | 20.34084 | -90.06578 | 11813 ft | 367 kts | 234° |
| 2026-05-05 02:09 | 20.32511 | -90.08750 | 12331 ft | 371 kts | 234° |
| 2026-05-05 02:09 | 20.30937 | -90.10925 | 12862 ft | 373 kts | 234° |
| 2026-05-05 02:10 | 20.29335 | -90.13138 | 13385 ft | 375 kts | 235° |
| 2026-05-05 02:10 | 20.27752 | -90.15331 | 13889 ft | 378 kts | 234° |
| 2026-05-05 02:10 | 20.26182 | -90.17580 | 14371 ft | 380 kts | 237° |
| 2026-05-05 02:10 | 20.24727 | -90.19944 | 14848 ft | 381 kts | 240° |
| 2026-05-05 02:11 | 20.23333 | -90.22340 | 15321 ft | 384 kts | 241° |
| 2026-05-05 02:11 | 20.21929 | -90.24764 | 15774 ft | 386 kts | 241° |
| 2026-05-05 02:11 | 20.20523 | -90.27193 | 16220 ft | 388 kts | 241° |
| 2026-05-05 02:11 | 20.19098 | -90.29656 | 16658 ft | 391 kts | 241° |
| 2026-05-05 02:12 | 20.17667 | -90.32127 | 17081 ft | 393 kts | 241° |
| 2026-05-05 02:12 | 20.14775 | -90.37100 | 17896 ft | 398 kts | 241° |
| 2026-05-05 02:12 | 20.13322 | -90.39602 | 18278 ft | 401 kts | 241° |
| 2026-05-05 02:13 | 20.11831 | -90.42167 | 18667 ft | 404 kts | 241° |
| 2026-05-05 02:13 | 20.10361 | -90.44694 | 19035 ft | 407 kts | 241° |
| 2026-05-05 02:13 | 20.08868 | -90.47253 | 19384 ft | 411 kts | 241° |
| 2026-05-05 02:13 | 20.07357 | -90.49848 | 19758 ft | 413 kts | 241° |
| 2026-05-05 02:14 | 20.05844 | -90.52443 | 20124 ft | 416 kts | 241° |
| 2026-05-05 02:14 | 20.04302 | -90.55084 | 20465 ft | 419 kts | 242° |
| 2026-05-05 02:14 | 20.02752 | -90.57743 | 20808 ft | 423 kts | 242° |
| 2026-05-05 02:14 | 20.01213 | -90.60383 | 21155 ft | 426 kts | 242° |
| 2026-05-05 02:15 | 19.99650 | -90.63061 | 21500 ft | 428 kts | 242° |
| 2026-05-05 02:15 | 19.98067 | -90.65773 | 21834 ft | 431 kts | 241° |
| 2026-05-05 02:15 | 19.96491 | -90.68482 | 22175 ft | 434 kts | 242° |
| 2026-05-05 02:15 | 19.94912 | -90.71195 | 22523 ft | 436 kts | 241° |
| 2026-05-05 02:16 | 19.93310 | -90.73948 | 22864 ft | 439 kts | 241° |
| 2026-05-05 02:16 | 19.91695 | -90.76714 | 23189 ft | 442 kts | 241° |
| 2026-05-05 02:16 | 19.90064 | -90.79499 | 23524 ft | 444 kts | 241° |
| 2026-05-05 02:16 | 19.88435 | -90.82268 | 23839 ft | 447 kts | 241° |
| 2026-05-05 02:17 | 19.86761 | -90.85098 | 24145 ft | 449 kts | 241° |
| 2026-05-05 02:17 | 19.85106 | -90.87905 | 24435 ft | 452 kts | 241° |
| 2026-05-05 02:17 | 19.83449 | -90.90727 | 24715 ft | 455 kts | 241° |
| 2026-05-05 02:17 | 19.81772 | -90.93585 | 24985 ft | 458 kts | 241° |
| 2026-05-05 02:18 | 19.80076 | -90.96479 | 25262 ft | 460 kts | 242° |
| 2026-05-05 02:18 | 19.78634 | -90.99481 | 25574 ft | 457 kts | 251° |
| 2026-05-05 02:18 | 19.77642 | -91.02669 | 25912 ft | 454 kts | 260° |
| 2026-05-05 02:18 | 19.77092 | -91.05959 | 26273 ft | 450 kts | 266° |
| 2026-05-05 02:19 | 19.76729 | -91.09221 | 26677 ft | 448 kts | 267° |
| 2026-05-05 02:19 | 19.76391 | -91.12517 | 27084 ft | 447 kts | 268° |
| 2026-05-05 02:19 | 19.76055 | -91.15781 | 27416 ft | 447 kts | 268° |
| 2026-05-05 02:19 | 19.75714 | -91.19044 | 27761 ft | 447 kts | 267° |
| 2026-05-05 02:20 | 19.75363 | -91.22347 | 28110 ft | 447 kts | 267° |
| 2026-05-05 02:20 | 19.75016 | -91.25580 | 28454 ft | 447 kts | 267° |
| 2026-05-05 02:20 | 19.74659 | -91.28869 | 28846 ft | 446 kts | 268° |
| 2026-05-05 02:20 | 19.74301 | -91.32131 | 29222 ft | 445 kts | 268° |
| 2026-05-05 02:21 | 19.73948 | -91.35362 | 29625 ft | 443 kts | 268° |
| 2026-05-05 02:21 | 19.73592 | -91.38619 | 30010 ft | 442 kts | 268° |
| 2026-05-05 02:21 | 19.73238 | -91.41833 | 30414 ft | 440 kts | 268° |
| 2026-05-05 02:21 | 19.72883 | -91.45049 | 30788 ft | 439 kts | 268° |
| 2026-05-05 02:22 | 19.72533 | -91.48235 | 31148 ft | 438 kts | 268° |
| 2026-05-05 02:22 | 19.72178 | -91.51459 | 31505 ft | 437 kts | 268° |
| 2026-05-05 02:22 | 19.71825 | -91.54630 | 31888 ft | 435 kts | 268° |
| 2026-05-05 02:22 | 19.71472 | -91.57818 | 32218 ft | 434 kts | 268° |
| 2026-05-05 02:23 | 19.71119 | -91.61010 | 32520 ft | 434 kts | 268° |
| 2026-05-05 02:23 | 19.70766 | -91.64177 | 32799 ft | 434 kts | 268° |
| 2026-05-05 02:23 | 19.70415 | -91.67351 | 33089 ft | 434 kts | 268° |
| 2026-05-05 02:23 | 19.70067 | -91.70486 | 33383 ft | 433 kts | 267° |
| 2026-05-05 02:24 | 19.69709 | -91.73698 | 33658 ft | 434 kts | 268° |
| 2026-05-05 02:24 | 19.69356 | -91.76846 | 33904 ft | 434 kts | 267° |
| 2026-05-05 02:24 | 19.69001 | -91.80003 | 33986 ft | 434 kts | 267° |
| 2026-05-05 02:25 | 19.68287 | -91.86353 | 33995 ft | 434 kts | 267° |
| 2026-05-05 02:25 | 19.67772 | -91.92690 | 33991 ft | 432 kts | 270° |
| 2026-05-05 02:26 | 19.67434 | -91.99077 | 33988 ft | 433 kts | 271° |
| 2026-05-05 02:26 | 19.67102 | -92.05447 | 33988 ft | 433 kts | 271° |
| 2026-05-05 02:27 | 19.66764 | -92.11817 | 33988 ft | 433 kts | 271° |
| 2026-05-05 02:27 | 19.66426 | -92.18188 | 33986 ft | 433 kts | 271° |
| 2026-05-05 02:28 | 19.66084 | -92.24532 | 33987 ft | 433 kts | 271° |
| 2026-05-05 02:28 | 19.65739 | -92.30914 | 33987 ft | 433 kts | 270° |
| 2026-05-05 02:29 | 19.65393 | -92.37281 | 33987 ft | 434 kts | 270° |
| 2026-05-05 02:29 | 19.65040 | -92.43676 | 33986 ft | 434 kts | 270° |
| 2026-05-05 02:30 | 19.64686 | -92.50050 | 33985 ft | 434 kts | 270° |
| 2026-05-05 02:30 | 19.64331 | -92.56431 | 33986 ft | 434 kts | 270° |
| 2026-05-05 02:31 | 19.63973 | -92.62814 | 33986 ft | 434 kts | 270° |
| 2026-05-05 02:31 | 19.63614 | -92.69190 | 33986 ft | 435 kts | 270° |
| 2026-05-05 02:32 | 19.63251 | -92.75622 | 33986 ft | 436 kts | 270° |
| 2026-05-05 02:32 | 19.62883 | -92.82018 | 33987 ft | 436 kts | 270° |
| 2026-05-05 02:33 | 19.62517 | -92.88415 | 33986 ft | 437 kts | 270° |
| 2026-05-05 02:33 | 19.62144 | -92.94826 | 33987 ft | 436 kts | 270° |
| 2026-05-05 02:34 | 19.61770 | -93.01243 | 33987 ft | 435 kts | 270° |
| 2026-05-05 02:34 | 19.61397 | -93.07642 | 33988 ft | 436 kts | 270° |
| 2026-05-05 02:35 | 19.61020 | -93.14051 | 33986 ft | 436 kts | 270° |
| 2026-05-05 02:35 | 19.60640 | -93.20446 | 33986 ft | 437 kts | 270° |
| 2026-05-05 02:36 | 19.60258 | -93.26848 | 33991 ft | 436 kts | 270° |
| 2026-05-05 02:36 | 19.59875 | -93.33243 | 33994 ft | 436 kts | 270° |
| 2026-05-05 02:37 | 19.59489 | -93.39647 | 33995 ft | 436 kts | 270° |
| 2026-05-05 02:37 | 19.59099 | -93.46087 | 33994 ft | 436 kts | 270° |
| 2026-05-05 02:38 | 19.58710 | -93.52460 | 33994 ft | 437 kts | 270° |
| 2026-05-05 02:38 | 19.58314 | -93.58888 | 33998 ft | 436 kts | 270° |
| 2026-05-05 02:39 | 19.57920 | -93.65269 | 33996 ft | 436 kts | 269° |
| 2026-05-05 02:39 | 19.57521 | -93.71703 | 33998 ft | 436 kts | 270° |
| 2026-05-05 02:40 | 19.57121 | -93.78106 | 34000 ft | 436 kts | 269° |
| 2026-05-05 02:40 | 19.56725 | -93.84459 | 33998 ft | 436 kts | 269° |
| 2026-05-05 02:41 | 19.56317 | -93.90886 | 33997 ft | 436 kts | 270° |
| 2026-05-05 02:41 | 19.55912 | -93.97246 | 33998 ft | 435 kts | 270° |
| 2026-05-05 02:42 | 19.55504 | -94.03647 | 34000 ft | 435 kts | 269° |
| 2026-05-05 02:42 | 19.55093 | -94.10063 | 33997 ft | 436 kts | 270° |
| 2026-05-05 02:43 | 19.54682 | -94.16438 | 33999 ft | 436 kts | 269° |
| 2026-05-05 02:43 | 19.54267 | -94.22817 | 33997 ft | 436 kts | 269° |
| 2026-05-05 02:44 | 19.53848 | -94.29236 | 33992 ft | 435 kts | 269° |
| 2026-05-05 02:44 | 19.53430 | -94.35590 | 33986 ft | 435 kts | 269° |
| 2026-05-05 02:45 | 19.53009 | -94.41982 | 33985 ft | 436 kts | 269° |
| 2026-05-05 02:45 | 19.52585 | -94.48398 | 33986 ft | 435 kts | 269° |
| 2026-05-05 02:46 | 19.52159 | -94.54777 | 33986 ft | 436 kts | 269° |
| 2026-05-05 02:46 | 19.51730 | -94.61172 | 33986 ft | 436 kts | 269° |
| 2026-05-05 02:47 | 19.51296 | -94.67636 | 33986 ft | 437 kts | 269° |
| 2026-05-05 02:47 | 19.50864 | -94.74002 | 33985 ft | 436 kts | 269° |
| 2026-05-05 02:48 | 19.50428 | -94.80434 | 33986 ft | 437 kts | 269° |
| 2026-05-05 02:48 | 19.49992 | -94.86822 | 33986 ft | 437 kts | 269° |
| 2026-05-05 02:49 | 19.49548 | -94.93259 | 33981 ft | 435 kts | 269° |
| 2026-05-05 02:49 | 19.49331 | -94.96368 | 33986 ft | 423 kts | 269° |
| 2026-05-05 02:49 | 19.48935 | -94.99483 | 33974 ft | 425 kts | 258° |
| 2026-05-05 02:49 | 19.47901 | -95.02391 | 33984 ft | 430 kts | 246° |
| 2026-05-05 02:50 | 19.46460 | -95.05216 | 33988 ft | 431 kts | 244° |
| 2026-05-05 02:50 | 19.43541 | -95.10743 | 33987 ft | 430 kts | 244° |
| 2026-05-05 02:51 | 19.40645 | -95.16288 | 33986 ft | 430 kts | 244° |
| 2026-05-05 02:51 | 19.37767 | -95.21839 | 33983 ft | 431 kts | 245° |
| 2026-05-05 02:52 | 19.34897 | -95.27367 | 33981 ft | 430 kts | 244° |
| 2026-05-05 02:52 | 19.31996 | -95.32940 | 33982 ft | 431 kts | 244° |
| 2026-05-05 02:53 | 19.29120 | -95.38470 | 33980 ft | 431 kts | 244° |
| 2026-05-05 02:53 | 19.26229 | -95.44029 | 33974 ft | 429 kts | 244° |
| 2026-05-05 02:53 | 19.24786 | -95.46796 | 33699 ft | 422 kts | 244° |
| 2026-05-05 02:54 | 19.23381 | -95.49490 | 32738 ft | 422 kts | 244° |
| 2026-05-05 02:54 | 19.21967 | -95.52202 | 31501 ft | 428 kts | 244° |
| 2026-05-05 02:54 | 19.20523 | -95.54974 | 30181 ft | 433 kts | 243° |
| 2026-05-05 02:54 | 19.19068 | -95.57764 | 29119 ft | 431 kts | 243° |
| 2026-05-05 02:55 | 19.17627 | -95.60518 | 28283 ft | 424 kts | 243° |
| 2026-05-05 02:55 | 19.16223 | -95.63197 | 27505 ft | 417 kts | 243° |
| 2026-05-05 02:55 | 19.14843 | -95.65833 | 26742 ft | 410 kts | 242° |
| 2026-05-05 02:55 | 19.13479 | -95.68440 | 25926 ft | 405 kts | 242° |
| 2026-05-05 02:56 | 19.12090 | -95.71037 | 25093 ft | 400 kts | 242° |
| 2026-05-05 02:56 | 19.10733 | -95.73553 | 24313 ft | 395 kts | 242° |
| 2026-05-05 02:56 | 19.09490 | -95.76128 | 23514 ft | 389 kts | 248° |
| 2026-05-05 02:56 | 19.08448 | -95.78735 | 22741 ft | 384 kts | 250° |
| 2026-05-05 02:57 | 19.07454 | -95.81318 | 21987 ft | 380 kts | 250° |
| 2026-05-05 02:57 | 19.06468 | -95.83891 | 21248 ft | 376 kts | 250° |
| 2026-05-05 02:57 | 19.05496 | -95.86417 | 20528 ft | 371 kts | 250° |
| 2026-05-05 02:57 | 19.04521 | -95.88938 | 19796 ft | 367 kts | 250° |
| 2026-05-05 02:58 | 19.03562 | -95.91412 | 19091 ft | 362 kts | 250° |
| 2026-05-05 02:58 | 19.02617 | -95.93846 | 18394 ft | 357 kts | 250° |
| 2026-05-05 02:58 | 19.01690 | -95.96233 | 17724 ft | 351 kts | 249° |
| 2026-05-05 02:58 | 19.00775 | -95.98583 | 17059 ft | 346 kts | 249° |
| 2026-05-05 02:59 | 18.99860 | -96.00930 | 16393 ft | 340 kts | 250° |
| 2026-05-05 02:59 | 18.98968 | -96.03216 | 15749 ft | 335 kts | 250° |
| 2026-05-05 02:59 | 18.98092 | -96.05461 | 15097 ft | 330 kts | 250° |
| 2026-05-05 02:59 | 18.97226 | -96.07677 | 14457 ft | 325 kts | 250° |
| 2026-05-05 03:00 | 18.96360 | -96.09895 | 13807 ft | 321 kts | 250° |
| 2026-05-05 03:00 | 18.95520 | -96.12052 | 13190 ft | 316 kts | 250° |
| 2026-05-05 03:00 | 18.94875 | -96.14215 | 12540 ft | 308 kts | 269° |
| 2026-05-05 03:00 | 18.95091 | -96.16425 | 11936 ft | 298 kts | 284° |
| 2026-05-05 03:01 | 18.95563 | -96.18528 | 11107 ft | 304 kts | 285° |
| 2026-05-05 03:01 | 18.96084 | -96.20731 | 9911 ft | 319 kts | 290° |
| 2026-05-05 03:01 | 18.97213 | -96.22748 | 8690 ft | 327 kts | 318° |
| 2026-05-05 03:01 | 18.99171 | -96.23935 | 7492 ft | 333 kts | 346° |
| 2026-05-05 03:02 | 19.01441 | -96.23992 | 6303 ft | 338 kts | 14° |
| 2026-05-05 03:02 | 19.03510 | -96.22884 | 5321 ft | 333 kts | 41° |
| 2026-05-05 03:02 | 19.04926 | -96.21001 | 4616 ft | 319 kts | 66° |
| 2026-05-05 03:02 | 19.05467 | -96.18818 | 4190 ft | 298 kts | 87° |
| 2026-05-05 03:03 | 19.05528 | -96.16727 | 4019 ft | 273 kts | 91° |
| 2026-05-05 03:03 | 19.05503 | -96.14771 | 4018 ft | 265 kts | 94° |
| 2026-05-05 03:03 | 19.05139 | -96.12871 | 4007 ft | 261 kts | 118° |
| 2026-05-05 03:03 | 19.04043 | -96.11430 | 4005 ft | 246 kts | 146° |
| 2026-05-05 03:04 | 19.02520 | -96.10787 | 3991 ft | 226 kts | 174° |
| 2026-05-05 03:04 | 19.00973 | -96.10706 | 3772 ft | 221 kts | 181° |
| 2026-05-05 03:04 | 18.99433 | -96.10744 | 3528 ft | 218 kts | 182° |
| 2026-05-05 03:04 | 18.97910 | -96.10806 | 3252 ft | 217 kts | 182° |
| 2026-05-05 03:05 | 18.96372 | -96.10877 | 2894 ft | 220 kts | 182° |
| 2026-05-05 03:05 | 18.94836 | -96.10957 | 2535 ft | 223 kts | 182° |
| 2026-05-05 03:05 | 18.93286 | -96.11138 | 2167 ft | 226 kts | 197° |
| 2026-05-05 03:05 | 18.91995 | -96.12054 | 2010 ft | 220 kts | 233° |
| 2026-05-05 03:06 | 18.91469 | -96.13507 | 1977 ft | 207 kts | 269° |
| 2026-05-05 03:06 | 18.91615 | -96.14969 | 2058 ft | 196 kts | 280° |
| 2026-05-05 03:06 | 18.91960 | -96.16363 | 2042 ft | 197 kts | 295° |
| 2026-05-05 03:06 | 18.92904 | -96.17400 | 1999 ft | 195 kts | 333° |
| 2026-05-05 03:07 | 18.94153 | -96.17955 | 2009 ft | 196 kts | 341° |
| 2026-05-05 03:07 | 18.95438 | -96.18426 | 1927 ft | 187 kts | 343° |
| 2026-05-05 03:07 | 18.96635 | -96.18855 | 1828 ft | 173 kts | 343° |
| 2026-05-05 03:07 | 18.97761 | -96.19256 | 1749 ft | 169 kts | 347° |
| 2026-05-05 03:08 | 18.98922 | -96.19532 | 1712 ft | 168 kts | 352° |
| 2026-05-05 03:08 | 19.00076 | -96.19757 | 1711 ft | 167 kts | 353° |
| 2026-05-05 03:08 | 19.01226 | -96.19974 | 1714 ft | 167 kts | 353° |
| 2026-05-05 03:08 | 19.02380 | -96.20194 | 1713 ft | 167 kts | 353° |
| 2026-05-05 03:09 | 19.03534 | -96.20413 | 1660 ft | 167 kts | 354° |
| 2026-05-05 03:09 | 19.04670 | -96.20513 | 1558 ft | 160 kts | 1° |
| 2026-05-05 03:09 | 19.05749 | -96.20494 | 1407 ft | 149 kts | 7° |
| 2026-05-05 03:09 | 19.06785 | -96.20386 | 1298 ft | 148 kts | 9° |
| 2026-05-05 03:10 | 19.07787 | -96.20185 | 1118 ft | 144 kts | 15° |
| 2026-05-05 03:10 | 19.08764 | -96.19952 | 936 ft | 143 kts | 14° |
| 2026-05-05 03:10 | 19.09757 | -96.19743 | 753 ft | 144 kts | 14° |
| 2026-05-05 03:10 | 19.10743 | -96.19540 | 555 ft | 143 kts | 13° |
| 2026-05-05 03:11 | 19.11728 | -96.19334 | 342 ft | 143 kts | 13° |
| 2026-05-05 03:11 | 19.12714 | -96.19126 | 175 ft | 143 kts | 13° |
| 2026-05-05 03:11 | 19.13649 | -96.18927 | 103 ft | 120 kts | 12° |
| 2026-05-05 03:11 | 19.14200 | -96.18821 | 94 ft | 54 kts | 17° |
| 2026-05-05 03:12 | 19.14562 | -96.18739 | 90 ft | 44 kts | 12° |
| 2026-05-05 03:12 | 19.14752 | -96.18698 | 86 ft | 23 kts | 11° |
| 2026-05-05 03:12 | 19.14901 | -96.18667 | 85 ft | 13 kts | 11° |
| 2026-05-05 03:12 | 19.14945 | -96.18599 | 85 ft | 12 kts | 109° |
| 2026-05-05 03:13 | 19.14869 | -96.18562 | 85 ft | 12 kts | 171° |
| 2026-05-05 03:13 | 19.14771 | -96.18548 | 86 ft | 15 kts | 173° |
| 2026-05-05 03:13 | 19.14660 | -96.18540 | 88 ft | 17 kts | 188° |
| 2026-05-05 03:13 | 19.14531 | -96.18547 | 88 ft | 19 kts | 177° |
| 2026-05-05 03:14 | 19.14391 | -96.18563 | 91 ft | 19 kts | 180° |
| 2026-05-05 03:14 | 19.14321 | -96.18491 | 91 ft | 14 kts | 112° |
| 2026-05-05 03:14 | 19.14304 | -96.18417 | 89 ft | 6 kts | 102° |
| 2026-05-05 03:14 | 19.14303 | -96.18412 | 89 ft | 0 kts | 102° |